ENNM/OSY METAR and TAF weather

Enter ICAO airport designator
Station Type Date Time Source
ENNM METAR 2021/09/20 05:20 UTC NOAA

ENNM 200520Z 06008KT CAVOK 06/04 Q1024


Station Type Date Time Source
ENNM Decoded METAR 2021/09/20 05:20 UTC NOAA

Namsos Lufthavn, Norway (ENNM) 64-28N 011-35E 2M
Sep 20, 2021 - 01:20 AM EDT / 2021.09.20 0520 UTC
Wind: from the ENE (060 degrees) at 9 MPH (8 KT):0
Visibility: greater than 7 mile(s):0
Temperature: 42 F (6 C)
Dew Point: 39 F (4 C)
Relative Humidity: 86%
Pressure (altimeter): 30.24 in. Hg (1024 hPa)
ob: ENNM 200520Z 06008KT CAVOK 06/04 Q1024
cycle: 5

Station Type Date Time Source
ENNM TAF UTC NOAA

Error!

Example: see airport list